Albury
Weather
Information

and Archive.
Albury Local Internet Skycam This service provided and funded by Albury Local Internet

Help keep our weatherstation running:

Lavington Weatherstation live data - Conditions of Use

Last updated on 26-Oct-2021 at 22:08:01
Temperature
  Currently 14.3 degrees C
  Apparent Temperature ("Wind Chill") is 13.7 degrees C
  Today has ranged from  6.8 at 06:09 to 21.5 at 15:36
  Yesterday ranged from  5.2 at 05:22 to 18.9 at 16:48
Wind
  Now:    8.3kmh, gusting to  10.1kmh from 26 degrees (NNE)
  Hour:   7.6kmh, gusting to  10.1kmh
Rainfall
   0.0mm Midnight to Midnight (ie, yesterday)
   0.0mm Since Midnight (ie, so far today)
   0.0mm 9am yesterday to 9am today
  30.6mm Total this month
Misc items
  Relative humidity is 94%
  Dewpoint is 13.3 deg C
  Estimated Cloudbase is 400 feet
  Barometric Pressure is 1019.0 mbar
  Solar Insolation: 0 W/m^2
  UV Index: 0.0 (Low)
  Dust: PM2.5 0.8ug/m3 PM10 4.3ug/m3   AQI 3 (Good)
Top Solar flares in the last 24 hours
 M1.3 Flare at 13:47 today (8 hr 21 min ago)
 C9.3 Flare at 12:07 today (10 hr 1 min ago)
 C8.5 Flare at 06:57 today (15 hr 11 min ago)

Last 24 hours Temperature Graph (click graph for history)
temperature

Last 24 hours Dynamic Wind display (click image for 4-hour image):
Wind Rose

Current Yarrawonga Weather Radar and Infrared Satellite Images from the BOM.

Hourly summaries in the tables below are cumulative and peak values
for the preceding hour, and instantaneous values at the hour.
So far today, 26-Oct-2021
Time   Barom.  Wind + Gust    Direction   RH   Rain    Temp.  Minimum    Maximum
01:00  1019.0   3.7  10.9kmh  134 ( SE)  100%  0.0mm   10.5  10.3@00:46 11.0@00:11
02:00  1019.0   5.1  22.4kmh  156 (SSE)  100%  0.0mm   10.1   9.8@01:46 10.6@01:01
03:00  1018.0   4.4  22.4kmh  128 ( SE)  100%  0.0mm    9.4   9.2@02:44 10.1@02:00
04:00  1018.0   3.3  10.0kmh  120 (ESE)  100%  0.0mm    9.3   8.9@03:35  9.4@03:00
05:00  1018.0   2.8   9.0kmh   92 ( E )  100%  0.0mm    8.1   7.4@04:33  9.4@04:10
06:00  1019.0   0.8   4.0kmh  158 (SSE)  100%  0.0mm    7.6   7.1@05:28  8.3@05:46
07:00  1020.0   1.7   5.6kmh  151 (SSE)  100%  0.0mm    8.3   6.8@06:09  8.5@06:46
08:00  1021.0   1.2  22.4kmh  155 (SSE)  100%  0.0mm   10.2   8.3@07:00 10.1@07:49
09:00  1021.0   3.1   9.9kmh  143 ( SE)  100%  0.0mm   13.2  10.0@08:01 13.3@08:53
10:00  1021.0   5.4  22.4kmh   98 ( E )   99%  0.0mm   15.6  13.2@09:00 15.5@09:44
11:00  1020.0   7.6  22.0kmh    5 ( N )   99%  0.0mm   17.1  15.3@10:11 17.1@10:49
12:00  1019.0   7.1  22.4kmh    3 ( N )   96%  0.0mm   18.2  16.8@11:08 18.3@11:36
13:00  1019.0   7.1  22.9kmh  303 (WNW)   93%  0.0mm   19.1  17.3@12:24 19.9@12:54
14:00  1018.0   7.3  22.1kmh   30 (NNE)   90%  0.0mm   20.0  18.0@13:20 20.7@13:56
15:00  1018.0   5.7  19.2kmh  321 ( NW)   76%  0.0mm   20.4  18.3@14:16 21.0@14:03
16:00  1017.0   7.6  20.0kmh  350 ( N )   60%  0.0mm   20.6  19.9@15:24 21.5@15:36
17:00  1017.0   5.0  14.1kmh   11 ( N )   67%  0.0mm   20.4  20.3@16:19 21.4@16:12
18:00  1017.0   5.1  14.6kmh   39 ( NE)   66%  0.0mm   19.9  20.0@17:59 21.3@17:20
19:00  1017.0   3.3  22.4kmh  298 (WNW)   76%  0.0mm   19.0  19.0@18:59 20.3@18:04
20:00  1018.0   4.1   8.5kmh   38 ( NE)   96%  0.0mm   15.1  15.1@19:55 19.0@19:00
21:00  1018.0   7.2   9.6kmh   26 (NNE)   92%  0.0mm   15.2  14.3@20:36 15.1@20:00
22:00  1019.0   5.9  22.4kmh   27 (NNE)   92%  0.0mm   14.7  14.2@21:34 15.3@21:01
22:08  1019.0   7.6  10.1kmh   26 (NNE)   94%  0.0mm   14.3  14.3@22:08 14.7@22:00


Summary for yesterday, 25-Oct-2021
Time   Barom.  Wind + Gust    Direction   RH   Rain    Temp.  Minimum    Maximum
01:00  1018.0   6.4  15.3kmh  246 (WSW)  100%  0.0mm    8.3   8.2@00:59  8.8@00:00
02:00  1017.0   6.3  12.4kmh  233 ( SW)  100%  0.0mm    7.4   7.4@01:58  8.3@01:00
03:00  1017.0   5.3  11.3kmh  256 (WSW)  100%  0.0mm    7.0   7.1@02:52  7.5@02:02
04:00  1017.0   5.7  12.5kmh  269 ( W )  100%  0.0mm    6.8   6.8@03:55  7.1@03:01
05:00  1017.0   4.6  12.0kmh  251 (WSW)  100%  0.0mm    6.3   6.2@04:43  6.8@04:00
06:00  1017.0   1.7   6.4kmh  162 (SSE)  100%  0.0mm    5.8   5.2@05:22  6.4@05:35
07:00  1018.0   4.6  14.3kmh  164 (SSE)  100%  0.0mm    5.9   5.6@06:08  6.1@06:04
08:00  1018.0   6.1  17.0kmh  144 ( SE)  100%  0.0mm    8.4   5.8@07:01  8.4@07:58
09:00  1018.0   8.1  23.2kmh  131 ( SE)  100%  0.0mm   10.8   8.4@08:00 11.0@08:55
10:00  1019.0   8.7  22.7kmh  178 ( S )   96%  0.0mm   12.2  10.7@09:11 13.1@09:56
11:00  1019.0   7.5  22.4kmh  165 (SSE)   84%  0.0mm   13.2  12.1@10:07 14.7@10:56
12:00  1019.0   7.7  19.2kmh  167 (SSE)   80%  0.0mm   14.8  13.2@11:00 15.4@11:57
13:00  1018.0   6.6  19.6kmh  171 ( S )   70%  0.0mm   15.8  14.8@12:00 16.9@12:49
14:00  1018.0   5.6  16.5kmh  237 (WSW)   72%  0.0mm   16.4  15.8@13:00 17.9@13:47
15:00  1017.0   5.7  19.4kmh  164 (SSE)   72%  0.0mm   17.8  15.8@14:11 17.7@14:05
16:00  1017.0   6.7  18.7kmh  280 ( W )   64%  0.0mm   18.1  16.8@15:04 18.7@15:40
17:00  1017.0   7.1  19.9kmh  252 (WSW)   72%  0.0mm   18.0  17.6@16:33 18.9@16:48
18:00  1016.0   8.0  19.9kmh  230 ( SW)   71%  0.0mm   17.6  17.5@17:07 18.4@17:26
19:00  1017.0   7.9  17.8kmh  240 (WSW)   79%  0.0mm   16.3  16.4@18:58 17.7@18:07
20:00  1017.0   7.3  17.7kmh  289 (WNW)   94%  0.0mm   14.1  14.1@19:52 16.3@19:00
21:00  1018.0   7.3  22.4kmh  281 ( W )   98%  0.0mm   13.5  13.3@20:46 14.2@20:02
22:00  1018.0   6.4  18.3kmh  261 ( W )  100%  0.0mm   12.8  12.7@21:55 13.5@21:00
23:00  1018.0   4.2  22.4kmh  300 (WNW)  100%  0.0mm   11.2  11.1@22:56 12.8@22:00
00:00  1019.0   1.4  22.4kmh  137 ( SE)  100%  0.0mm   10.8  10.6@23:32 11.9@23:10